sensor_id;sensor_type;location;lat;lon;timestamp;P1;durP1;ratioP1;P2;durP2;ratioP2
3259;SDS011;68938;48.150;14.004;2024-01-27T00:00:32;5.20;;;2.03;;
3259;SDS011;68938;48.150;14.004;2024-01-27T00:02:59;3.70;;;2.10;;
3259;SDS011;68938;48.150;14.004;2024-01-27T00:05:26;3.23;;;2.43;;
3259;SDS011;68938;48.150;14.004;2024-01-27T00:07:57;2.37;;;2.20;;
3259;SDS011;68938;48.150;14.004;2024-01-27T00:10:24;6.60;;;2.93;;
3259;SDS011;68938;48.150;14.004;2024-01-27T00:12:51;4.07;;;2.50;;
3259;SDS011;68938;48.150;14.004;2024-01-27T00:15:18;4.60;;;2.43;;
3259;SDS011;68938;48.150;14.004;2024-01-27T00:17:45;4.63;;;2.30;;
3259;SDS011;68938;48.150;14.004;2024-01-27T00:20:12;2.30;;;2.10;;
3259;SDS011;68938;48.150;14.004;2024-01-27T00:22:39;5.50;;;2.83;;
3259;SDS011;68938;48.150;14.004;2024-01-27T00:25:06;2.73;;;2.53;;
3259;SDS011;68938;48.150;14.004;2024-01-27T00:27:33;2.30;;;2.20;;
3259;SDS011;68938;48.150;14.004;2024-01-27T00:30:00;2.87;;;2.67;;
3259;SDS011;68938;48.150;14.004;2024-01-27T00:32:27;3.43;;;2.17;;
3259;SDS011;68938;48.150;14.004;2024-01-27T00:34:54;2.70;;;2.50;;
3259;SDS011;68938;48.150;14.004;2024-01-27T00:37:21;4.30;;;2.53;;
3259;SDS011;68938;48.150;14.004;2024-01-27T00:39:48;5.27;;;2.13;;
3259;SDS011;68938;48.150;14.004;2024-01-27T00:42:15;3.57;;;2.83;;
3259;SDS011;68938;48.150;14.004;2024-01-27T00:44:42;2.07;;;1.90;;
3259;SDS011;68938;48.150;14.004;2024-01-27T00:47:09;5.80;;;2.77;;
3259;SDS011;68938;48.150;14.004;2024-01-27T00:49:37;2.23;;;2.00;;
3259;SDS011;68938;48.150;14.004;2024-01-27T00:52:04;4.60;;;2.27;;
3259;SDS011;68938;48.150;14.004;2024-01-27T00:54:31;9.93;;;2.53;;
3259;SDS011;68938;48.150;14.004;2024-01-27T00:56:58;2.73;;;2.10;;
3259;SDS011;68938;48.150;14.004;2024-01-27T00:59:25;3.93;;;2.20;;
3259;SDS011;68938;48.150;14.004;2024-01-27T01:01:52;1.90;;;1.80;;
3259;SDS011;68938;48.150;14.004;2024-01-27T01:04:19;3.17;;;2.07;;
3259;SDS011;68938;48.150;14.004;2024-01-27T01:06:46;3.30;;;2.40;;
3259;SDS011;68938;48.150;14.004;2024-01-27T01:09:13;3.63;;;1.90;;
3259;SDS011;68938;48.150;14.004;2024-01-27T01:11:40;3.87;;;1.90;;
3259;SDS011;68938;48.150;14.004;2024-01-27T01:14:07;4.37;;;2.20;;
3259;SDS011;68938;48.150;14.004;2024-01-27T01:16:34;2.07;;;1.97;;
3259;SDS011;68938;48.150;14.004;2024-01-27T01:19:01;4.33;;;2.40;;
3259;SDS011;68938;48.150;14.004;2024-01-27T01:21:28;3.10;;;2.60;;
3259;SDS011;68938;48.150;14.004;2024-01-27T01:23:55;2.80;;;2.27;;
3259;SDS011;68938;48.150;14.004;2024-01-27T01:26:22;5.07;;;2.50;;
3259;SDS011;68938;48.150;14.004;2024-01-27T01:28:51;6.30;;;2.37;;
3259;SDS011;68938;48.150;14.004;2024-01-27T01:31:18;3.60;;;2.30;;
3259;SDS011;68938;48.150;14.004;2024-01-27T01:33:45;4.57;;;2.80;;
3259;SDS011;68938;48.150;14.004;2024-01-27T01:36:13;2.93;;;2.70;;
3259;SDS011;68938;48.150;14.004;2024-01-27T01:38:40;3.93;;;2.20;;
3259;SDS011;68938;48.150;14.004;2024-01-27T01:41:07;2.13;;;1.90;;
3259;SDS011;68938;48.150;14.004;2024-01-27T01:43:34;3.00;;;2.80;;
3259;SDS011;68938;48.150;14.004;2024-01-27T01:46:01;6.67;;;3.03;;
3259;SDS011;68938;48.150;14.004;2024-01-27T01:48:29;6.10;;;3.03;;
3259;SDS011;68938;48.150;14.004;2024-01-27T01:50:57;2.57;;;2.43;;
3259;SDS011;68938;48.150;14.004;2024-01-27T01:53:26;5.93;;;2.40;;
3259;SDS011;68938;48.150;14.004;2024-01-27T01:55:53;4.73;;;2.87;;
3259;SDS011;68938;48.150;14.004;2024-01-27T01:58:20;4.10;;;2.57;;
3259;SDS011;68938;48.150;14.004;2024-01-27T02:00:47;6.47;;;2.70;;
3259;SDS011;68938;48.150;14.004;2024-01-27T02:03:14;3.17;;;2.90;;
3259;SDS011;68938;48.150;14.004;2024-01-27T02:05:41;4.93;;;2.40;;
3259;SDS011;68938;48.150;14.004;2024-01-27T02:08:08;2.40;;;2.07;;
3259;SDS011;68938;48.150;14.004;2024-01-27T02:10:35;2.20;;;2.00;;
3259;SDS011;68938;48.150;14.004;2024-01-27T02:15:49;4.00;;;2.30;;
3259;SDS011;68938;48.150;14.004;2024-01-27T02:18:17;3.20;;;2.87;;
3259;SDS011;68938;48.150;14.004;2024-01-27T02:20:44;4.47;;;3.20;;
3259;SDS011;68938;48.150;14.004;2024-01-27T02:23:11;5.60;;;2.60;;
3259;SDS011;68938;48.150;14.004;2024-01-27T02:25:38;3.13;;;2.77;;
3259;SDS011;68938;48.150;14.004;2024-01-27T02:28:05;4.23;;;2.80;;
3259;SDS011;68938;48.150;14.004;2024-01-27T02:30:32;5.50;;;2.60;;
3259;SDS011;68938;48.150;14.004;2024-01-27T02:32:59;5.90;;;3.13;;
3259;SDS011;68938;48.150;14.004;2024-01-27T02:35:27;2.33;;;2.23;;
3259;SDS011;68938;48.150;14.004;2024-01-27T02:37:53;7.13;;;3.63;;
3259;SDS011;68938;48.150;14.004;2024-01-27T02:40:20;2.80;;;2.47;;
3259;SDS011;68938;48.150;14.004;2024-01-27T02:42:47;7.50;;;3.10;;
3259;SDS011;68938;48.150;14.004;2024-01-27T02:45:14;3.03;;;2.73;;
3259;SDS011;68938;48.150;14.004;2024-01-27T02:47:42;2.93;;;2.60;;
3259;SDS011;68938;48.150;14.004;2024-01-27T02:50:09;2.93;;;2.73;;
3259;SDS011;68938;48.150;14.004;2024-01-27T02:52:36;3.53;;;2.50;;
3259;SDS011;68938;48.150;14.004;2024-01-27T02:55:03;4.73;;;4.20;;
3259;SDS011;68938;48.150;14.004;2024-01-27T02:57:32;2.60;;;2.40;;
3259;SDS011;68938;48.150;14.004;2024-01-27T02:59:59;3.13;;;2.20;;
3259;SDS011;68938;48.150;14.004;2024-01-27T03:02:26;3.33;;;2.90;;
3259;SDS011;68938;48.150;14.004;2024-01-27T03:04:53;3.00;;;2.27;;
3259;SDS011;68938;48.150;14.004;2024-01-27T03:07:20;2.00;;;1.90;;
3259;SDS011;68938;48.150;14.004;2024-01-27T03:09:47;3.07;;;2.50;;
3259;SDS011;68938;48.150;14.004;2024-01-27T03:12:14;3.47;;;3.20;;
3259;SDS011;68938;48.150;14.004;2024-01-27T03:14:42;6.80;;;3.50;;
3259;SDS011;68938;48.150;14.004;2024-01-27T03:17:09;3.30;;;2.80;;
3259;SDS011;68938;48.150;14.004;2024-01-27T03:19:36;5.90;;;5.27;;
3259;SDS011;68938;48.150;14.004;2024-01-27T03:22:03;7.67;;;6.97;;
3259;SDS011;68938;48.150;14.004;2024-01-27T03:24:30;9.30;;;7.47;;
3259;SDS011;68938;48.150;14.004;2024-01-27T03:26:57;10.50;;;7.07;;
3259;SDS011;68938;48.150;14.004;2024-01-27T03:29:24;9.90;;;7.37;;
3259;SDS011;68938;48.150;14.004;2024-01-27T03:31:51;9.17;;;6.13;;
3259;SDS011;68938;48.150;14.004;2024-01-27T03:34:18;4.30;;;3.90;;
3259;SDS011;68938;48.150;14.004;2024-01-27T03:36:47;5.97;;;4.33;;
3259;SDS011;68938;48.150;14.004;2024-01-27T03:39:14;4.60;;;4.17;;
3259;SDS011;68938;48.150;14.004;2024-01-27T03:41:42;2.33;;;2.23;;
3259;SDS011;68938;48.150;14.004;2024-01-27T03:44:08;4.20;;;3.10;;
3259;SDS011;68938;48.150;14.004;2024-01-27T03:46:35;6.33;;;3.90;;
3259;SDS011;68938;48.150;14.004;2024-01-27T03:49:02;4.27;;;3.90;;
3259;SDS011;68938;48.150;14.004;2024-01-27T03:51:29;7.57;;;4.20;;
3259;SDS011;68938;48.150;14.004;2024-01-27T03:53:56;6.23;;;5.63;;
3259;SDS011;68938;48.150;14.004;2024-01-27T03:56:24;8.03;;;6.33;;
3259;SDS011;68938;48.150;14.004;2024-01-27T03:58:50;9.80;;;6.10;;
3259;SDS011;68938;48.150;14.004;2024-01-27T04:01:17;8.23;;;5.60;;
3259;SDS011;68938;48.150;14.004;2024-01-27T04:03:44;8.97;;;6.60;;
3259;SDS011;68938;48.150;14.004;2024-01-27T04:06:11;9.27;;;6.10;;
3259;SDS011;68938;48.150;14.004;2024-01-27T04:08:38;14.20;;;6.60;;
3259;SDS011;68938;48.150;14.004;2024-01-27T04:11:05;11.20;;;7.50;;
3259;SDS011;68938;48.150;14.004;2024-01-27T04:13:32;8.43;;;6.10;;
3259;SDS011;68938;48.150;14.004;2024-01-27T04:15:59;7.13;;;6.47;;
3259;SDS011;68938;48.150;14.004;2024-01-27T04:18:25;9.00;;;7.10;;
3259;SDS011;68938;48.150;14.004;2024-01-27T04:20:53;7.63;;;6.20;;
3259;SDS011;68938;48.150;14.004;2024-01-27T04:23:20;9.27;;;5.30;;
3259;SDS011;68938;48.150;14.004;2024-01-27T04:25:46;8.17;;;4.30;;
3259;SDS011;68938;48.150;14.004;2024-01-27T04:28:13;6.30;;;3.00;;
3259;SDS011;68938;48.150;14.004;2024-01-27T04:30:40;6.33;;;3.10;;
3259;SDS011;68938;48.150;14.004;2024-01-27T04:33:07;4.50;;;2.70;;
3259;SDS011;68938;48.150;14.004;2024-01-27T04:35:35;2.60;;;2.07;;
3259;SDS011;68938;48.150;14.004;2024-01-27T04:38:02;7.60;;;2.87;;
3259;SDS011;68938;48.150;14.004;2024-01-27T04:40:29;4.33;;;2.20;;
3259;SDS011;68938;48.150;14.004;2024-01-27T04:42:55;3.17;;;2.57;;
3259;SDS011;68938;48.150;14.004;2024-01-27T04:45:22;3.33;;;2.73;;
3259;SDS011;68938;48.150;14.004;2024-01-27T04:47:49;6.20;;;3.47;;
3259;SDS011;68938;48.150;14.004;2024-01-27T04:50:16;5.67;;;2.93;;
3259;SDS011;68938;48.150;14.004;2024-01-27T04:52:43;4.77;;;2.80;;
3259;SDS011;68938;48.150;14.004;2024-01-27T04:55:10;2.33;;;2.13;;
3259;SDS011;68938;48.150;14.004;2024-01-27T04:57:37;8.43;;;3.50;;
3259;SDS011;68938;48.150;14.004;2024-01-27T05:00:04;4.20;;;2.63;;
3259;SDS011;68938;48.150;14.004;2024-01-27T05:02:32;2.57;;;2.33;;
3259;SDS011;68938;48.150;14.004;2024-01-27T05:04:59;2.77;;;2.40;;
3259;SDS011;68938;48.150;14.004;2024-01-27T05:07:26;3.73;;;3.40;;
3259;SDS011;68938;48.150;14.004;2024-01-27T05:09:53;3.57;;;3.27;;
3259;SDS011;68938;48.150;14.004;2024-01-27T05:12:20;3.00;;;2.80;;
3259;SDS011;68938;48.150;14.004;2024-01-27T05:14:47;5.00;;;2.50;;
3259;SDS011;68938;48.150;14.004;2024-01-27T05:17:14;6.57;;;2.77;;
3259;SDS011;68938;48.150;14.004;2024-01-27T05:19:41;5.57;;;3.07;;
3259;SDS011;68938;48.150;14.004;2024-01-27T05:22:07;6.43;;;2.77;;
3259;SDS011;68938;48.150;14.004;2024-01-27T05:24:34;4.80;;;2.97;;
3259;SDS011;68938;48.150;14.004;2024-01-27T05:27:01;4.93;;;3.13;;
3259;SDS011;68938;48.150;14.004;2024-01-27T05:29:28;3.27;;;2.97;;
3259;SDS011;68938;48.150;14.004;2024-01-27T05:31:55;7.60;;;2.80;;
3259;SDS011;68938;48.150;14.004;2024-01-27T05:34:22;4.33;;;3.53;;
3259;SDS011;68938;48.150;14.004;2024-01-27T05:36:49;3.63;;;2.60;;
3259;SDS011;68938;48.150;14.004;2024-01-27T05:39:16;9.17;;;3.30;;
3259;SDS011;68938;48.150;14.004;2024-01-27T05:41:43;8.63;;;3.27;;
3259;SDS011;68938;48.150;14.004;2024-01-27T05:44:10;5.60;;;3.07;;
3259;SDS011;68938;48.150;14.004;2024-01-27T05:46:37;3.53;;;3.23;;
3259;SDS011;68938;48.150;14.004;2024-01-27T05:49:03;6.00;;;3.07;;
3259;SDS011;68938;48.150;14.004;2024-01-27T05:51:31;4.53;;;3.53;;
3259;SDS011;68938;48.150;14.004;2024-01-27T05:53:58;3.43;;;3.10;;
3259;SDS011;68938;48.150;14.004;2024-01-27T05:56:25;5.27;;;3.70;;
3259;SDS011;68938;48.150;14.004;2024-01-27T05:58:52;4.17;;;2.90;;
3259;SDS011;68938;48.150;14.004;2024-01-27T06:01:19;6.40;;;3.23;;
3259;SDS011;68938;48.150;14.004;2024-01-27T06:03:46;10.00;;;3.17;;
3259;SDS011;68938;48.150;14.004;2024-01-27T06:06:14;3.13;;;2.83;;
3259;SDS011;68938;48.150;14.004;2024-01-27T06:08:41;5.83;;;3.93;;
3259;SDS011;68938;48.150;14.004;2024-01-27T06:11:08;4.60;;;3.43;;
3259;SDS011;68938;48.150;14.004;2024-01-27T06:13:36;8.00;;;4.60;;
3259;SDS011;68938;48.150;14.004;2024-01-27T06:16:06;7.93;;;4.50;;
3259;SDS011;68938;48.150;14.004;2024-01-27T06:18:34;6.30;;;4.20;;
3259;SDS011;68938;48.150;14.004;2024-01-27T06:21:02;5.03;;;4.00;;
3259;SDS011;68938;48.150;14.004;2024-01-27T06:23:30;5.93;;;3.30;;
3259;SDS011;68938;48.150;14.004;2024-01-27T06:25:57;4.50;;;4.10;;
3259;SDS011;68938;48.150;14.004;2024-01-27T06:28:24;8.53;;;5.40;;
3259;SDS011;68938;48.150;14.004;2024-01-27T06:30:51;5.43;;;4.13;;
3259;SDS011;68938;48.150;14.004;2024-01-27T06:33:18;5.20;;;3.37;;
3259;SDS011;68938;48.150;14.004;2024-01-27T06:35:45;4.90;;;4.13;;
3259;SDS011;68938;48.150;14.004;2024-01-27T06:38:11;8.53;;;5.00;;
3259;SDS011;68938;48.150;14.004;2024-01-27T06:40:38;10.80;;;5.13;;
3259;SDS011;68938;48.150;14.004;2024-01-27T06:43:05;13.20;;;5.43;;
3259;SDS011;68938;48.150;14.004;2024-01-27T06:45:32;5.77;;;4.63;;
3259;SDS011;68938;48.150;14.004;2024-01-27T06:47:59;10.03;;;4.27;;
3259;SDS011;68938;48.150;14.004;2024-01-27T06:50:27;5.67;;;4.43;;
3259;SDS011;68938;48.150;14.004;2024-01-27T06:52:53;6.43;;;4.20;;
3259;SDS011;68938;48.150;14.004;2024-01-27T06:55:20;6.70;;;4.30;;
3259;SDS011;68938;48.150;14.004;2024-01-27T06:57:47;5.13;;;4.63;;
3259;SDS011;68938;48.150;14.004;2024-01-27T07:00:14;4.67;;;3.63;;
3259;SDS011;68938;48.150;14.004;2024-01-27T07:02:42;4.57;;;4.13;;
3259;SDS011;68938;48.150;14.004;2024-01-27T07:05:10;6.00;;;4.40;;
3259;SDS011;68938;48.150;14.004;2024-01-27T07:07:37;7.10;;;4.30;;
3259;SDS011;68938;48.150;14.004;2024-01-27T07:10:04;10.57;;;7.80;;
3259;SDS011;68938;48.150;14.004;2024-01-27T07:12:32;7.73;;;4.37;;
3259;SDS011;68938;48.150;14.004;2024-01-27T07:14:59;4.37;;;3.97;;
3259;SDS011;68938;48.150;14.004;2024-01-27T07:17:27;4.63;;;4.17;;
3259;SDS011;68938;48.150;14.004;2024-01-27T07:19:54;5.17;;;4.57;;
3259;SDS011;68938;48.150;14.004;2024-01-27T07:22:22;8.60;;;4.60;;
3259;SDS011;68938;48.150;14.004;2024-01-27T07:24:49;6.00;;;5.20;;
3259;SDS011;68938;48.150;14.004;2024-01-27T07:27:16;11.43;;;5.03;;
3259;SDS011;68938;48.150;14.004;2024-01-27T07:29:44;9.23;;;4.87;;
3259;SDS011;68938;48.150;14.004;2024-01-27T07:32:11;7.87;;;5.33;;
3259;SDS011;68938;48.150;14.004;2024-01-27T07:34:42;11.03;;;5.27;;
3259;SDS011;68938;48.150;14.004;2024-01-27T07:37:10;5.27;;;3.90;;
3259;SDS011;68938;48.150;14.004;2024-01-27T07:39:37;7.00;;;5.50;;
3259;SDS011;68938;48.150;14.004;2024-01-27T07:42:04;6.30;;;4.93;;
3259;SDS011;68938;48.150;14.004;2024-01-27T07:44:31;8.70;;;5.27;;
3259;SDS011;68938;48.150;14.004;2024-01-27T07:46:58;6.77;;;4.53;;
3259;SDS011;68938;48.150;14.004;2024-01-27T07:49:25;9.20;;;4.50;;
3259;SDS011;68938;48.150;14.004;2024-01-27T07:51:52;7.60;;;4.83;;
3259;SDS011;68938;48.150;14.004;2024-01-27T07:54:19;12.53;;;6.30;;
3259;SDS011;68938;48.150;14.004;2024-01-27T07:56:46;7.53;;;5.43;;
3259;SDS011;68938;48.150;14.004;2024-01-27T07:59:13;6.63;;;5.30;;
3259;SDS011;68938;48.150;14.004;2024-01-27T08:01:41;8.00;;;6.40;;
3259;SDS011;68938;48.150;14.004;2024-01-27T08:04:08;9.40;;;5.00;;
3259;SDS011;68938;48.150;14.004;2024-01-27T08:06:45;5.30;;;4.63;;
3259;SDS011;68938;48.150;14.004;2024-01-27T08:09:14;13.53;;;5.30;;
3259;SDS011;68938;48.150;14.004;2024-01-27T08:11:42;11.30;;;5.10;;
3259;SDS011;68938;48.150;14.004;2024-01-27T08:14:10;10.47;;;5.80;;
3259;SDS011;68938;48.150;14.004;2024-01-27T08:16:37;8.10;;;5.80;;
3259;SDS011;68938;48.150;14.004;2024-01-27T08:19:04;5.37;;;4.37;;
3259;SDS011;68938;48.150;14.004;2024-01-27T08:21:31;9.60;;;4.57;;
3259;SDS011;68938;48.150;14.004;2024-01-27T08:23:58;6.23;;;5.10;;
3259;SDS011;68938;48.150;14.004;2024-01-27T08:26:25;5.50;;;4.20;;
3259;SDS011;68938;48.150;14.004;2024-01-27T08:28:52;8.17;;;4.00;;
3259;SDS011;68938;48.150;14.004;2024-01-27T08:31:19;5.73;;;4.23;;
3259;SDS011;68938;48.150;14.004;2024-01-27T08:33:45;12.57;;;4.10;;
3259;SDS011;68938;48.150;14.004;2024-01-27T08:36:13;5.07;;;4.33;;
3259;SDS011;68938;48.150;14.004;2024-01-27T08:38:41;8.23;;;5.40;;
3259;SDS011;68938;48.150;14.004;2024-01-27T08:41:07;7.10;;;4.43;;
3259;SDS011;68938;48.150;14.004;2024-01-27T08:43:34;8.57;;;3.83;;
3259;SDS011;68938;48.150;14.004;2024-01-27T08:46:01;5.00;;;4.60;;
3259;SDS011;68938;48.150;14.004;2024-01-27T08:48:28;6.00;;;3.70;;
3259;SDS011;68938;48.150;14.004;2024-01-27T08:50:55;5.43;;;3.97;;
3259;SDS011;68938;48.150;14.004;2024-01-27T08:53:22;5.67;;;4.10;;
3259;SDS011;68938;48.150;14.004;2024-01-27T08:55:49;4.87;;;3.80;;
3259;SDS011;68938;48.150;14.004;2024-01-27T08:58:16;7.50;;;4.00;;
3259;SDS011;68938;48.150;14.004;2024-01-27T09:00:43;9.73;;;3.90;;
3259;SDS011;68938;48.150;14.004;2024-01-27T09:03:10;13.37;;;5.93;;
3259;SDS011;68938;48.150;14.004;2024-01-27T09:05:37;3.67;;;3.33;;
3259;SDS011;68938;48.150;14.004;2024-01-27T09:08:04;10.07;;;4.77;;
3259;SDS011;68938;48.150;14.004;2024-01-27T09:10:31;4.77;;;3.40;;
3259;SDS011;68938;48.150;14.004;2024-01-27T09:12:58;5.33;;;3.83;;
3259;SDS011;68938;48.150;14.004;2024-01-27T09:15:25;8.67;;;3.93;;
3259;SDS011;68938;48.150;14.004;2024-01-27T09:17:52;8.60;;;4.30;;
3259;SDS011;68938;48.150;14.004;2024-01-27T09:20:19;8.37;;;4.63;;
3259;SDS011;68938;48.150;14.004;2024-01-27T09:22:46;12.40;;;4.63;;
3259;SDS011;68938;48.150;14.004;2024-01-27T09:25:13;5.50;;;4.27;;
3259;SDS011;68938;48.150;14.004;2024-01-27T09:27:41;4.17;;;3.83;;
3259;SDS011;68938;48.150;14.004;2024-01-27T09:30:08;17.13;;;4.70;;
3259;SDS011;68938;48.150;14.004;2024-01-27T09:32:36;7.50;;;4.60;;
3259;SDS011;68938;48.150;14.004;2024-01-27T09:35:03;5.40;;;4.07;;
3259;SDS011;68938;48.150;14.004;2024-01-27T09:37:30;6.00;;;3.30;;
3259;SDS011;68938;48.150;14.004;2024-01-27T09:39:57;6.17;;;3.50;;
3259;SDS011;68938;48.150;14.004;2024-01-27T09:42:24;9.93;;;3.20;;
3259;SDS011;68938;48.150;14.004;2024-01-27T09:44:52;5.80;;;4.17;;
3259;SDS011;68938;48.150;14.004;2024-01-27T09:47:22;5.27;;;4.60;;
3259;SDS011;68938;48.150;14.004;2024-01-27T09:49:50;8.43;;;3.40;;
3259;SDS011;68938;48.150;14.004;2024-01-27T09:52:17;8.03;;;4.30;;
3259;SDS011;68938;48.150;14.004;2024-01-27T09:54:44;5.27;;;3.43;;
3259;SDS011;68938;48.150;14.004;2024-01-27T09:57:11;11.00;;;4.60;;
3259;SDS011;68938;48.150;14.004;2024-01-27T09:59:39;4.57;;;3.33;;
3259;SDS011;68938;48.150;14.004;2024-01-27T10:02:08;9.03;;;2.70;;
3259;SDS011;68938;48.150;14.004;2024-01-27T10:04:38;5.07;;;3.60;;
3259;SDS011;68938;48.150;14.004;2024-01-27T10:07:08;12.80;;;4.13;;
3259;SDS011;68938;48.150;14.004;2024-01-27T10:09:35;6.10;;;4.63;;
3259;SDS011;68938;48.150;14.004;2024-01-27T10:12:02;6.60;;;3.80;;
3259;SDS011;68938;48.150;14.004;2024-01-27T10:14:42;5.40;;;3.80;;
3259;SDS011;68938;48.150;14.004;2024-01-27T10:17:10;6.20;;;4.10;;
3259;SDS011;68938;48.150;14.004;2024-01-27T10:19:38;9.67;;;4.53;;
3259;SDS011;68938;48.150;14.004;2024-01-27T10:22:10;8.87;;;2.90;;
3259;SDS011;68938;48.150;14.004;2024-01-27T10:24:37;4.93;;;3.70;;
3259;SDS011;68938;48.150;14.004;2024-01-27T10:27:05;5.07;;;3.60;;
3259;SDS011;68938;48.150;14.004;2024-01-27T10:29:33;10.33;;;4.10;;
3259;SDS011;68938;48.150;14.004;2024-01-27T10:32:09;6.27;;;3.10;;
3259;SDS011;68938;48.150;14.004;2024-01-27T10:34:36;8.23;;;4.73;;
3259;SDS011;68938;48.150;14.004;2024-01-27T10:37:04;9.10;;;3.83;;
3259;SDS011;68938;48.150;14.004;2024-01-27T10:39:31;9.63;;;4.90;;
3259;SDS011;68938;48.150;14.004;2024-01-27T10:41:58;9.67;;;4.03;;
3259;SDS011;68938;48.150;14.004;2024-01-27T10:44:29;4.47;;;4.03;;
3259;SDS011;68938;48.150;14.004;2024-01-27T10:46:56;7.27;;;4.00;;
3259;SDS011;68938;48.150;14.004;2024-01-27T10:49:28;15.27;;;4.77;;
3259;SDS011;68938;48.150;14.004;2024-01-27T10:52:01;9.07;;;4.07;;
3259;SDS011;68938;48.150;14.004;2024-01-27T10:54:35;9.90;;;4.30;;
3259;SDS011;68938;48.150;14.004;2024-01-27T10:57:06;7.03;;;4.30;;
3259;SDS011;68938;48.150;14.004;2024-01-27T10:59:36;3.97;;;3.67;;
3259;SDS011;68938;48.150;14.004;2024-01-27T11:02:07;7.13;;;4.20;;
3259;SDS011;68938;48.150;14.004;2024-01-27T11:04:40;5.77;;;3.47;;
3259;SDS011;68938;48.150;14.004;2024-01-27T11:07:09;4.80;;;3.87;;
3259;SDS011;68938;48.150;14.004;2024-01-27T11:09:36;4.97;;;4.30;;
3259;SDS011;68938;48.150;14.004;2024-01-27T11:12:05;9.53;;;4.30;;
3259;SDS011;68938;48.150;14.004;2024-01-27T11:14:34;3.50;;;3.00;;
3259;SDS011;68938;48.150;14.004;2024-01-27T11:17:02;5.30;;;3.70;;
3259;SDS011;68938;48.150;14.004;2024-01-27T11:19:29;8.40;;;4.23;;
3259;SDS011;68938;48.150;14.004;2024-01-27T11:22:03;11.00;;;4.33;;
3259;SDS011;68938;48.150;14.004;2024-01-27T11:24:30;7.13;;;3.50;;
3259;SDS011;68938;48.150;14.004;2024-01-27T11:27:01;5.20;;;3.80;;
3259;SDS011;68938;48.150;14.004;2024-01-27T11:29:30;5.50;;;4.33;;
3259;SDS011;68938;48.150;14.004;2024-01-27T11:32:01;5.97;;;3.13;;
3259;SDS011;68938;48.150;14.004;2024-01-27T11:34:45;10.40;;;4.37;;
3259;SDS011;68938;48.150;14.004;2024-01-27T11:37:15;6.77;;;3.00;;
3259;SDS011;68938;48.150;14.004;2024-01-27T11:39:43;6.37;;;3.07;;
3259;SDS011;68938;48.150;14.004;2024-01-27T11:42:11;6.73;;;3.37;;
3259;SDS011;68938;48.150;14.004;2024-01-27T11:44:40;8.03;;;3.67;;
3259;SDS011;68938;48.150;14.004;2024-01-27T11:47:15;4.73;;;3.50;;
3259;SDS011;68938;48.150;14.004;2024-01-27T11:49:50;14.83;;;4.60;;
3259;SDS011;68938;48.150;14.004;2024-01-27T11:52:19;6.10;;;3.30;;
3259;SDS011;68938;48.150;14.004;2024-01-27T11:54:54;6.67;;;2.93;;
3259;SDS011;68938;48.150;14.004;2024-01-27T11:57:25;5.10;;;3.63;;
3259;SDS011;68938;48.150;14.004;2024-01-27T11:59:54;9.10;;;3.20;;
3259;SDS011;68938;48.150;14.004;2024-01-27T12:02:22;7.93;;;3.47;;
3259;SDS011;68938;48.150;14.004;2024-01-27T12:04:49;9.40;;;4.10;;
3259;SDS011;68938;48.150;14.004;2024-01-27T12:07:16;4.03;;;3.60;;
3259;SDS011;68938;48.150;14.004;2024-01-27T12:09:44;6.90;;;4.50;;
3259;SDS011;68938;48.150;14.004;2024-01-27T12:12:12;8.97;;;5.53;;
3259;SDS011;68938;48.150;14.004;2024-01-27T12:17:18;5.03;;;3.83;;
3259;SDS011;68938;48.150;14.004;2024-01-27T12:19:47;16.90;;;8.63;;
3259;SDS011;68938;48.150;14.004;2024-01-27T12:22:23;17.67;;;8.03;;
3259;SDS011;68938;48.150;14.004;2024-01-27T12:24:50;4.07;;;3.20;;
3259;SDS011;68938;48.150;14.004;2024-01-27T12:27:17;11.10;;;5.70;;
3259;SDS011;68938;48.150;14.004;2024-01-27T12:29:46;5.60;;;3.80;;
3259;SDS011;68938;48.150;14.004;2024-01-27T12:32:15;12.17;;;8.80;;
3259;SDS011;68938;48.150;14.004;2024-01-27T12:34:43;7.77;;;5.00;;
3259;SDS011;68938;48.150;14.004;2024-01-27T12:37:11;9.97;;;4.70;;
3259;SDS011;68938;48.150;14.004;2024-01-27T12:39:44;6.70;;;4.47;;
3259;SDS011;68938;48.150;14.004;2024-01-27T12:42:13;6.53;;;4.90;;
3259;SDS011;68938;48.150;14.004;2024-01-27T12:44:40;5.77;;;4.87;;
3259;SDS011;68938;48.150;14.004;2024-01-27T12:47:07;5.90;;;5.33;;
3259;SDS011;68938;48.150;14.004;2024-01-27T12:49:34;9.70;;;5.57;;
3259;SDS011;68938;48.150;14.004;2024-01-27T12:52:02;11.50;;;8.13;;
3259;SDS011;68938;48.150;14.004;2024-01-27T12:54:30;9.40;;;4.00;;
3259;SDS011;68938;48.150;14.004;2024-01-27T12:56:58;11.60;;;8.00;;
3259;SDS011;68938;48.150;14.004;2024-01-27T12:59:25;13.23;;;6.37;;
3259;SDS011;68938;48.150;14.004;2024-01-27T13:01:51;7.23;;;3.77;;
3259;SDS011;68938;48.150;14.004;2024-01-27T13:04:18;7.33;;;4.67;;
3259;SDS011;68938;48.150;14.004;2024-01-27T13:06:46;4.87;;;4.47;;
3259;SDS011;68938;48.150;14.004;2024-01-27T13:09:13;5.00;;;3.70;;
3259;SDS011;68938;48.150;14.004;2024-01-27T13:11:40;6.83;;;4.70;;
3259;SDS011;68938;48.150;14.004;2024-01-27T13:14:08;10.60;;;7.10;;
3259;SDS011;68938;48.150;14.004;2024-01-27T13:16:35;21.37;;;10.43;;
3259;SDS011;68938;48.150;14.004;2024-01-27T13:19:02;14.77;;;8.00;;
3259;SDS011;68938;48.150;14.004;2024-01-27T13:21:29;11.50;;;7.40;;
3259;SDS011;68938;48.150;14.004;2024-01-27T13:23:56;6.33;;;5.50;;
3259;SDS011;68938;48.150;14.004;2024-01-27T13:26:23;13.20;;;5.87;;
3259;SDS011;68938;48.150;14.004;2024-01-27T13:28:53;9.27;;;3.90;;
3259;SDS011;68938;48.150;14.004;2024-01-27T13:31:20;6.50;;;4.80;;
3259;SDS011;68938;48.150;14.004;2024-01-27T13:33:47;9.27;;;5.17;;
3259;SDS011;68938;48.150;14.004;2024-01-27T13:36:15;5.80;;;5.10;;
3259;SDS011;68938;48.150;14.004;2024-01-27T13:38:42;11.53;;;5.77;;
3259;SDS011;68938;48.150;14.004;2024-01-27T13:41:09;9.37;;;5.50;;
3259;SDS011;68938;48.150;14.004;2024-01-27T13:43:36;7.50;;;5.53;;
3259;SDS011;68938;48.150;14.004;2024-01-27T13:46:03;6.10;;;4.93;;
3259;SDS011;68938;48.150;14.004;2024-01-27T13:48:30;11.57;;;6.90;;
3259;SDS011;68938;48.150;14.004;2024-01-27T13:50:57;6.67;;;4.97;;
3259;SDS011;68938;48.150;14.004;2024-01-27T13:53:25;9.10;;;5.80;;
3259;SDS011;68938;48.150;14.004;2024-01-27T13:56:08;10.67;;;5.37;;
3259;SDS011;68938;48.150;14.004;2024-01-27T13:58:36;6.70;;;5.10;;
3259;SDS011;68938;48.150;14.004;2024-01-27T14:01:03;8.70;;;3.47;;
3259;SDS011;68938;48.150;14.004;2024-01-27T14:03:30;5.73;;;5.07;;
3259;SDS011;68938;48.150;14.004;2024-01-27T14:05:57;9.40;;;4.20;;
3259;SDS011;68938;48.150;14.004;2024-01-27T14:08:24;4.93;;;4.53;;
3259;SDS011;68938;48.150;14.004;2024-01-27T14:10:51;5.23;;;3.87;;
3259;SDS011;68938;48.150;14.004;2024-01-27T14:13:18;5.20;;;4.10;;
3259;SDS011;68938;48.150;14.004;2024-01-27T14:15:45;11.90;;;3.30;;
3259;SDS011;68938;48.150;14.004;2024-01-27T14:18:12;8.40;;;3.50;;
3259;SDS011;68938;48.150;14.004;2024-01-27T14:20:39;3.57;;;3.00;;
3259;SDS011;68938;48.150;14.004;2024-01-27T14:23:06;7.17;;;3.27;;
3259;SDS011;68938;48.150;14.004;2024-01-27T14:25:33;5.37;;;3.03;;
3259;SDS011;68938;48.150;14.004;2024-01-27T14:28:00;3.37;;;3.17;;
3259;SDS011;68938;48.150;14.004;2024-01-27T14:30:27;9.70;;;2.90;;
3259;SDS011;68938;48.150;14.004;2024-01-27T14:32:54;7.30;;;3.07;;
3259;SDS011;68938;48.150;14.004;2024-01-27T14:35:21;7.40;;;3.17;;
3259;SDS011;68938;48.150;14.004;2024-01-27T14:37:48;5.23;;;4.13;;
3259;SDS011;68938;48.150;14.004;2024-01-27T14:40:15;6.73;;;3.20;;
3259;SDS011;68938;48.150;14.004;2024-01-27T14:42:42;3.97;;;2.87;;
3259;SDS011;68938;48.150;14.004;2024-01-27T14:45:09;4.73;;;2.50;;
3259;SDS011;68938;48.150;14.004;2024-01-27T14:47:36;5.83;;;3.20;;
3259;SDS011;68938;48.150;14.004;2024-01-27T14:50:04;4.20;;;2.80;;
3259;SDS011;68938;48.150;14.004;2024-01-27T14:52:32;3.50;;;2.60;;